Portada
METAR-TAF:

METAR-TAF

Aeroports :

Labuan, Malàisia

latitud: 05-18N, longitud: 115-15E, altitud: 30 m

Observació

L'informe es va fer fa 57 minuts, a les 03:00 UTC
Vent 3 kt amb direcció variable
Temperatura 27°C
Humitat 79%
Pressió 1011 hPa
Visibilitat 10 km o més
Escasses núvols a una alçada de 1300 ft
Cel ennuvolat a una alçada de 14000 ft
Cel ennuvolat a una alçada de 28000 ft

METAR: WBKL 210300Z VRB03KT 9999 FEW013 BKN140 BKN280 27/23 Q1011

Hora: 11:57 (03:57 UTC)

Pronòstic

L'informe es va fer fa 4 hores i 57 minuts, a les 23:00 UTC
Pronòstic vàlid del 21 a les 00 UTC al 22 a les 00 UTC
Vent 3 kt amb direcció variable
Visibilitat 10 km o més
Escasses núvols a una alçada de 1400 ft
Temporalment
l' 21 a les 00 UTC al 21 a les 04 UTC
Visibilitat: 5000 m
Escasses núvols a una alçada de 1200 ft
Escasses núvols a una alçada de 1500 ft, Cumulonimbus.
Núvols disperses a una alçada de 4000 ft
pluja

TAF: WBKL 202300Z 2100/2200 VRB03KT 9999 FEW014 TEMPO 2100/2104 5000 RA FEW012 FEW015CB SCT040

Observacions i pronòstics meteorològics de més de 4000 aeroports (METAR i TAF).

Les estacions disponibles són els punts grocs i vermells al mapa.

Posi el ratolí al punt desitjat per veure el nom de l'estació.

Feu clic per veure les observacions i els pronòstics meteorològics.

Per canviar el mapa: feu clic els botons verds amb una creu de color negre per apropar; al botó verd amb un guió per allunyar la imatge; o en les fletxes verdes per a mapes adjacents.


METAR-TAF: